Time;durP1;ratioP1;P1;durP2;ratioP2;P2;SDS_P1;SDS_P2;PMS_P1;PMS_P2;Temp;Humidity;BMP_temperature;BMP_pressure;BME280_temperature;BME280_humidity;BME280_pressure;Samples;Min_cycle;Max_cycle;Signal;HPM_P1;HPM_P2
2022/03/28 00:01:09;;;;;;;;;;;10.90;64.00;;;;;;4984843;28;19932;-77
2022/03/28 00:03:36;;;;;;;;;;;10.90;64.10;;;;;;5000137;28;19929;-76
2022/03/28 00:06:03;;;;;;;;;;;10.90;64.10;;;;;;4989908;28;20349;-76
2022/03/28 00:08:32;;;;;;;;;;;10.80;63.90;;;;;;4988556;28;19938;-76
2022/03/28 00:10:59;;;;;;;;;;;10.80;64.00;;;;;;4980711;28;20016;-77
2022/03/28 00:13:25;;;;;;;;;;;10.80;64.20;;;;;;4986003;28;19934;-77
2022/03/28 00:15:52;;;;;;;;;;;10.70;64.00;;;;;;4987952;28;19926;-77
2022/03/28 00:18:21;;;;;;;;;;;10.70;63.90;;;;;;4995752;28;20392;-76
2022/03/28 00:20:49;;;;;;;;;;;10.70;64.10;;;;;;4982616;28;20359;-77
2022/03/28 00:23:16;;;;;;;;;;;10.60;64.80;;;;;;4986864;28;20025;-76
2022/03/28 00:25:45;;;;;;;;;;;10.60;64.20;;;;;;4988609;28;19933;-76
2022/03/28 00:28:12;;;;;;;;;;;10.60;64.10;;;;;;4983478;28;19936;-75
2022/03/28 00:30:39;;;;;;;;;;;10.60;64.30;;;;;;4985803;28;19925;-77
2022/03/28 00:33:06;;;;;;;;;;;10.50;64.30;;;;;;4991091;28;19926;-77
2022/03/28 00:35:35;;;;;;;;;;;10.50;64.40;;;;;;4988979;28;19974;-76
2022/03/28 00:38:02;;;;;;;;;;;10.40;64.30;;;;;;4986114;28;19926;-76
2022/03/28 00:40:31;;;;;;;;;;;10.40;64.40;;;;;;4991290;28;19926;-77
2022/03/28 00:43:01;;;;;;;;;;;10.40;64.30;;;;;;4985963;28;19926;-77
2022/03/28 00:45:28;;;;;;;;;;;10.40;64.30;;;;;;4985100;28;20471;-77
2022/03/28 00:47:55;;;;;;;;;;;10.40;64.90;;;;;;4987541;28;19938;-77
2022/03/28 00:50:23;;;;;;;;;;;10.30;64.50;;;;;;4988879;28;19925;-77
2022/03/28 00:52:50;;;;;;;;;;;10.30;64.50;;;;;;4990198;28;19932;-75
2022/03/28 00:55:17;;;;;;;;;;;10.30;64.70;;;;;;4987876;28;20536;-77
2022/03/28 00:57:45;;;;;;;;;;;10.30;64.60;;;;;;4991316;28;19929;-77
2022/03/28 01:00:14;;;;;;;;;;;10.20;64.50;;;;;;4988059;28;19933;-75
2022/03/28 01:02:41;;;;;;;;;;;10.20;64.50;;;;;;4985828;28;19926;-77
2022/03/28 01:05:08;;;;;;;;;;;10.20;64.50;;;;;;4994777;28;19925;-76
2022/03/28 01:07:37;;;;;;;;;;;10.20;64.60;;;;;;4990681;28;19926;-76
2022/03/28 01:10:04;;;;;;;;;;;10.20;64.60;;;;;;4990640;28;20008;-77
2022/03/28 01:12:32;;;;;;;;;;;10.20;64.80;;;;;;4991505;28;19941;-76
2022/03/28 01:15:00;;;;;;;;;;;10.10;64.70;;;;;;4995427;28;19972;-77
2022/03/28 01:20:13;;;;;;;;;;;10.10;64.70;;;;;;4989738;28;20315;-76
2022/03/28 01:22:41;;;;;;;;;;;10.00;64.70;;;;;;4985680;28;19930;-76
2022/03/28 01:25:08;;;;;;;;;;;10.00;64.60;;;;;;4990675;28;20511;-77
2022/03/28 01:27:37;;;;;;;;;;;10.00;64.50;;;;;;4990145;28;19996;-77
2022/03/28 01:30:04;;;;;;;;;;;10.00;64.70;;;;;;4986874;28;20039;-76
2022/03/28 01:32:31;;;;;;;;;;;9.90;65.80;;;;;;5003220;28;19992;-76
2022/03/28 01:34:58;;;;;;;;;;;9.90;65.80;;;;;;4988873;28;20277;-77
2022/03/28 01:37:25;;;;;;;;;;;9.90;65.70;;;;;;4991000;28;19933;-76
2022/03/28 01:39:53;;;;;;;;;;;9.90;65.70;;;;;;4989955;28;19929;-76
2022/03/28 01:42:20;;;;;;;;;;;9.90;65.70;;;;;;4990168;28;20363;-76
2022/03/28 01:44:49;;;;;;;;;;;9.80;65.70;;;;;;4992200;28;19929;-76
2022/03/28 01:47:17;;;;;;;;;;;9.80;65.80;;;;;;4987470;28;20299;-76
2022/03/28 01:49:44;;;;;;;;;;;9.80;65.90;;;;;;4989515;28;20040;-76
2022/03/28 01:52:11;;;;;;;;;;;9.70;65.80;;;;;;4984353;28;19930;-76
2022/03/28 01:54:38;;;;;;;;;;;9.70;65.90;;;;;;4993067;28;19934;-76
2022/03/28 01:57:10;;;;;;;;;;;9.70;66.00;;;;;;4991561;28;19925;-76
2022/03/28 01:59:37;;;;;;;;;;;9.60;65.90;;;;;;4989160;28;19976;-76
2022/03/28 02:02:04;;;;;;;;;;;9.60;66.00;;;;;;4985204;28;19965;-76
2022/03/28 02:04:32;;;;;;;;;;;9.60;66.10;;;;;;4990379;28;19932;-76
2022/03/28 02:06:58;;;;;;;;;;;9.60;66.80;;;;;;4988785;28;20012;-76
2022/03/28 02:09:25;;;;;;;;;;;9.50;66.30;;;;;;4992006;28;20351;-76
2022/03/28 02:11:52;;;;;;;;;;;9.50;66.30;;;;;;4987049;28;20385;-76
2022/03/28 02:14:21;;;;;;;;;;;9.50;66.40;;;;;;4990092;28;20460;-76
2022/03/28 02:16:48;;;;;;;;;;;9.40;66.40;;;;;;4990384;28;20007;-76
2022/03/28 02:19:15;;;;;;;;;;;9.40;66.40;;;;;;4993717;28;19933;-75
2022/03/28 02:21:42;;;;;;;;;;;9.40;66.60;;;;;;4991917;28;19925;-76
2022/03/28 02:24:09;;;;;;;;;;;9.40;66.80;;;;;;5003720;28;19925;-77
2022/03/28 02:26:36;;;;;;;;;;;9.40;66.80;;;;;;4986135;28;19957;-75
2022/03/28 02:29:03;;;;;;;;;;;9.40;66.80;;;;;;4989905;28;20281;-76
2022/03/28 02:31:31;;;;;;;;;;;9.40;66.70;;;;;;4984477;28;19938;-76
2022/03/28 02:33:58;;;;;;;;;;;9.30;66.70;;;;;;4993037;28;20575;-76
2022/03/28 02:36:25;;;;;;;;;;;9.30;66.80;;;;;;4988344;28;19981;-77
2022/03/28 02:38:51;;;;;;;;;;;9.30;66.90;;;;;;4987902;28;19941;-76
2022/03/28 02:41:18;;;;;;;;;;;9.20;67.30;;;;;;4984130;28;19926;-76
2022/03/28 02:43:45;;;;;;;;;;;9.20;66.90;;;;;;4992179;28;19934;-76
2022/03/28 02:46:12;;;;;;;;;;;9.20;66.80;;;;;;4989477;28;19980;-76
2022/03/28 02:48:40;;;;;;;;;;;9.20;66.90;;;;;;4986123;28;19934;-76
2022/03/28 02:51:07;;;;;;;;;;;9.20;66.80;;;;;;4992580;28;19929;-76
2022/03/28 02:53:34;;;;;;;;;;;9.20;66.90;;;;;;4991782;28;19933;-77
2022/03/28 02:56:01;;;;;;;;;;;9.10;67.00;;;;;;4991071;28;19940;-76
2022/03/28 02:58:28;;;;;;;;;;;9.10;67.10;;;;;;5004982;28;19930;-76
2022/03/28 03:00:55;;;;;;;;;;;9.00;67.00;;;;;;4994652;23;19933;-91
2022/03/28 03:03:21;;;;;;;;;;;9.10;67.10;;;;;;4979633;28;19969;-87
2022/03/28 03:05:50;;;;;;;;;;;9.00;67.10;;;;;;4970338;28;19941;-89
2022/03/28 03:08:17;;;;;;;;;;;9.00;67.10;;;;;;4964483;28;19926;-90
2022/03/28 03:10:44;;;;;;;;;;;9.00;67.30;;;;;;4977727;28;20329;-89
2022/03/28 03:13:11;;;;;;;;;;;9.00;67.20;;;;;;4979893;28;20277;-89
2022/03/28 03:15:38;;;;;;;;;;;9.00;67.10;;;;;;4965562;28;19933;-89
2022/03/28 03:18:05;;;;;;;;;;;9.00;67.30;;;;;;4966088;28;19980;-87
2022/03/28 03:20:33;;;;;;;;;;;8.90;67.20;;;;;;4964157;28;19973;-88
2022/03/28 03:23:01;;;;;;;;;;;8.90;67.30;;;;;;4970846;28;19930;-89
2022/03/28 03:25:28;;;;;;;;;;;8.90;67.30;;;;;;4957341;28;20009;-87
2022/03/28 03:27:56;;;;;;;;;;;8.80;67.40;;;;;;4968865;28;19930;-87
2022/03/28 03:30:23;;;;;;;;;;;8.80;67.50;;;;;;4977969;28;19934;-88
2022/03/28 03:32:50;;;;;;;;;;;8.80;67.50;;;;;;4970363;28;19946;-89
2022/03/28 03:35:17;;;;;;;;;;;8.80;67.60;;;;;;4968946;28;19930;-88
2022/03/28 03:37:43;;;;;;;;;;;8.70;67.70;;;;;;4972073;28;19954;-88
2022/03/28 03:40:13;;;;;;;;;;;8.70;67.70;;;;;;4969323;28;19934;-88
2022/03/28 03:42:40;;;;;;;;;;;8.70;67.80;;;;;;4959124;28;19933;-87
2022/03/28 03:45:08;;;;;;;;;;;8.70;67.70;;;;;;4971640;28;19938;-88
2022/03/28 03:47:35;;;;;;;;;;;8.70;67.70;;;;;;4965790;28;19933;-88
2022/03/28 03:50:03;;;;;;;;;;;8.70;67.70;;;;;;4972315;28;19930;-88
2022/03/28 03:52:30;;;;;;;;;;;8.70;67.70;;;;;;4969135;28;20021;-89
2022/03/28 03:54:57;;;;;;;;;;;8.60;67.60;;;;;;4969976;28;20294;-89
2022/03/28 03:57:25;;;;;;;;;;;8.60;67.70;;;;;;4969235;28;19934;-89
2022/03/28 03:59:53;;;;;;;;;;;8.60;67.80;;;;;;4965908;28;19973;-91
2022/03/28 04:02:19;;;;;;;;;;;8.60;67.90;;;;;;4952483;28;19937;-88
2022/03/28 04:04:47;;;;;;;;;;;8.60;67.90;;;;;;5002758;23;20422;-79
2022/03/28 04:07:14;;;;;;;;;;;8.60;68.00;;;;;;4996137;28;20311;-80
2022/03/28 04:09:42;;;;;;;;;;;8.60;68.30;;;;;;4992324;28;19925;-79
2022/03/28 04:12:11;;;;;;;;;;;8.50;68.20;;;;;;4997113;28;20392;-80
2022/03/28 04:14:39;;;;;;;;;;;8.50;68.10;;;;;;4992603;28;19926;-79
2022/03/28 04:17:06;;;;;;;;;;;8.50;68.10;;;;;;4971345;28;19926;-79
2022/03/28 04:19:34;;;;;;;;;;;8.50;68.00;;;;;;5000438;28;19980;-79
2022/03/28 04:22:01;;;;;;;;;;;8.50;68.00;;;;;;4992735;28;19943;-81
2022/03/28 04:24:28;;;;;;;;;;;8.40;68.00;;;;;;4993670;28;19930;-80
2022/03/28 04:26:55;;;;;;;;;;;8.40;68.00;;;;;;4992766;28;19980;-79
2022/03/28 04:29:22;;;;;;;;;;;8.40;67.90;;;;;;4969234;28;19926;-79
2022/03/28 04:31:51;;;;;;;;;;;8.40;67.90;;;;;;4979675;28;19973;-79
2022/03/28 04:34:18;;;;;;;;;;;8.40;68.10;;;;;;4989650;28;20355;-79
2022/03/28 04:36:45;;;;;;;;;;;8.40;68.00;;;;;;4986409;28;20384;-80
2022/03/28 04:39:12;;;;;;;;;;;8.40;68.10;;;;;;5000866;28;20454;-79
2022/03/28 04:41:39;;;;;;;;;;;8.40;68.00;;;;;;4993138;28;19930;-80
2022/03/28 04:44:06;;;;;;;;;;;8.30;68.00;;;;;;4992555;28;19933;-79
2022/03/28 04:46:33;;;;;;;;;;;8.30;68.00;;;;;;4974770;28;19930;-79
2022/03/28 04:49:02;;;;;;;;;;;8.30;68.10;;;;;;4989771;28;19930;-78
2022/03/28 04:51:29;;;;;;;;;;;8.30;68.10;;;;;;4988129;28;19929;-79
2022/03/28 04:53:56;;;;;;;;;;;8.30;68.00;;;;;;4993206;28;19969;-79
2022/03/28 04:56:23;;;;;;;;;;;8.20;67.80;;;;;;4994217;28;20408;-77
2022/03/28 04:58:50;;;;;;;;;;;8.20;67.90;;;;;;4975057;28;19972;-79
2022/03/28 05:01:16;;;;;;;;;;;8.20;67.90;;;;;;4990482;28;19953;-78
2022/03/28 05:03:43;;;;;;;;;;;8.20;68.00;;;;;;4973950;28;19926;-79
2022/03/28 05:06:11;;;;;;;;;;;8.10;67.80;;;;;;4972403;28;19988;-78
2022/03/28 05:08:38;;;;;;;;;;;8.10;67.90;;;;;;4986360;28;19929;-78
2022/03/28 05:11:05;;;;;;;;;;;8.10;67.90;;;;;;4988619;28;19926;-80
2022/03/28 05:13:32;;;;;;;;;;;8.00;68.50;;;;;;4991459;28;20008;-79
2022/03/28 05:15:59;;;;;;;;;;;8.00;69.00;;;;;;4995140;28;19934;-77
2022/03/28 05:18:26;;;;;;;;;;;8.00;69.00;;;;;;4992194;28;20495;-78
2022/03/28 05:20:53;;;;;;;;;;;8.00;68.60;;;;;;4992203;28;20368;-78
2022/03/28 05:23:21;;;;;;;;;;;8.00;68.50;;;;;;4996925;28;19926;-78
2022/03/28 05:25:47;;;;;;;;;;;7.90;68.40;;;;;;4995360;28;20299;-78
2022/03/28 05:28:14;;;;;;;;;;;7.90;68.50;;;;;;5002110;28;19930;-81
2022/03/28 05:30:41;;;;;;;;;;;7.90;68.40;;;;;;4993737;28;19929;-78
2022/03/28 05:33:08;;;;;;;;;;;7.90;68.30;;;;;;4999478;28;19936;-78
2022/03/28 05:35:35;;;;;;;;;;;7.90;68.30;;;;;;4977727;28;19926;-78
2022/03/28 05:38:02;;;;;;;;;;;7.90;68.40;;;;;;4991724;28;19926;-78
2022/03/28 05:40:30;;;;;;;;;;;7.90;68.40;;;;;;4996248;28;19933;-80
2022/03/28 05:42:57;;;;;;;;;;;7.80;68.30;;;;;;4993449;28;20004;-79
2022/03/28 05:45:25;;;;;;;;;;;7.80;68.40;;;;;;4980674;28;20327;-78
2022/03/28 05:47:51;;;;;;;;;;;7.70;68.30;;;;;;5000193;28;20346;-78
2022/03/28 05:50:18;;;;;;;;;;;7.70;68.30;;;;;;4999340;28;19972;-78
2022/03/28 05:52:45;;;;;;;;;;;7.70;68.30;;;;;;4987006;28;19962;-81
2022/03/28 05:55:12;;;;;;;;;;;7.70;68.30;;;;;;4995273;28;19948;-79
2022/03/28 05:57:40;;;;;;;;;;;7.70;68.40;;;;;;4996183;28;20058;-78
2022/03/28 06:00:09;;;;;;;;;;;7.70;68.40;;;;;;4992705;28;20400;-79
2022/03/28 06:02:39;;;;;;;;;;;7.60;68.30;;;;;;4993463;28;19934;-79
2022/03/28 06:05:06;;;;;;;;;;;7.70;68.30;;;;;;4995494;28;19976;-79
2022/03/28 06:07:33;;;;;;;;;;;7.60;68.90;;;;;;4978604;28;19964;-79
2022/03/28 06:10:00;;;;;;;;;;;7.60;68.30;;;;;;4983105;28;19929;-79
2022/03/28 06:12:27;;;;;;;;;;;7.50;68.20;;;;;;4968966;28;20003;-79
2022/03/28 06:14:55;;;;;;;;;;;7.50;68.30;;;;;;4994338;28;19932;-80
2022/03/28 06:17:22;;;;;;;;;;;7.50;68.40;;;;;;4985438;28;19933;-79
2022/03/28 06:19:49;;;;;;;;;;;7.60;68.40;;;;;;4998141;28;19926;-79
2022/03/28 06:22:16;;;;;;;;;;;7.60;68.40;;;;;;4999772;28;19926;-80
2022/03/28 06:24:43;;;;;;;;;;;7.60;68.40;;;;;;4996896;28;19929;-80
2022/03/28 06:27:10;;;;;;;;;;;7.60;68.30;;;;;;4988299;28;19930;-80
2022/03/28 06:29:37;;;;;;;;;;;7.50;68.30;;;;;;4995378;28;20024;-81
2022/03/28 06:32:06;;;;;;;;;;;7.60;68.40;;;;;;4986638;28;19926;-80
2022/03/28 06:34:33;;;;;;;;;;;7.50;68.40;;;;;;4994336;28;19988;-80
2022/03/28 06:37:00;;;;;;;;;;;7.50;68.30;;;;;;4991499;28;20323;-79
2022/03/28 06:39:27;;;;;;;;;;;7.50;68.30;;;;;;4998852;28;19925;-79
2022/03/28 06:46:57;;;;;;;;;;;7.50;68.60;;;;;;5004422;23;19933;-79
2022/03/28 06:49:25;;;;;;;;;;;7.50;68.40;;;;;;4985117;28;19929;-80
2022/03/28 06:51:52;;;;;;;;;;;7.50;68.50;;;;;;5007251;28;20220;-81
2022/03/28 06:54:19;;;;;;;;;;;7.40;68.40;;;;;;5008351;28;19937;-81
2022/03/28 06:56:46;;;;;;;;;;;7.40;68.40;;;;;;5010343;28;20017;-80
2022/03/28 06:59:14;;;;;;;;;;;7.40;68.30;;;;;;4998211;28;20507;-79
2022/03/28 07:01:41;;;;;;;;;;;7.20;68.50;;;;;;5002022;28;20073;-79
2022/03/28 07:04:10;;;;;;;;;;;7.20;69.10;;;;;;4973126;28;19937;-78
2022/03/28 07:06:38;;;;;;;;;;;7.10;69.20;;;;;;4991814;28;20597;-79
2022/03/28 07:09:05;;;;;;;;;;;7.10;69.20;;;;;;4994268;28;19925;-79
2022/03/28 07:11:32;;;;;;;;;;;7.00;69.30;;;;;;4997086;28;20464;-79
2022/03/28 07:13:59;;;;;;;;;;;7.00;69.30;;;;;;4992143;28;20305;-79
2022/03/28 07:16:26;;;;;;;;;;;7.00;69.60;;;;;;4979342;28;19957;-79
2022/03/28 07:18:53;;;;;;;;;;;7.00;69.60;;;;;;4995654;28;19932;-80
2022/03/28 07:21:20;;;;;;;;;;;7.00;69.80;;;;;;4991598;28;19930;-79
2022/03/28 07:23:49;;;;;;;;;;;7.00;69.70;;;;;;4982556;28;19956;-78
2022/03/28 07:26:16;;;;;;;;;;;7.00;69.90;;;;;;4975207;28;19958;-79
2022/03/28 07:28:43;;;;;;;;;;;7.00;70.10;;;;;;4976105;28;20396;-79
2022/03/28 07:31:10;;;;;;;;;;;6.90;70.20;;;;;;4997099;28;19953;-79
2022/03/28 07:33:39;;;;;;;;;;;6.90;70.30;;;;;;4996225;28;19948;-78
2022/03/28 07:36:06;;;;;;;;;;;6.90;70.60;;;;;;4988757;28;19926;-79
2022/03/28 07:38:33;;;;;;;;;;;6.90;70.70;;;;;;4979935;28;19926;-79
2022/03/28 07:41:02;;;;;;;;;;;6.90;70.90;;;;;;4998344;28;19926;-79
2022/03/28 07:43:29;;;;;;;;;;;6.90;70.90;;;;;;4993462;28;19933;-78
2022/03/28 07:45:56;;;;;;;;;;;6.90;71.20;;;;;;5000097;28;20028;-78
2022/03/28 07:48:23;;;;;;;;;;;6.90;71.30;;;;;;4997155;28;19934;-79
2022/03/28 07:50:50;;;;;;;;;;;6.90;71.20;;;;;;4998296;28;19934;-80
2022/03/28 07:53:17;;;;;;;;;;;6.90;71.70;;;;;;5000885;28;19933;-79
2022/03/28 07:55:45;;;;;;;;;;;6.90;71.70;;;;;;4994950;28;19938;-80
2022/03/28 07:58:14;;;;;;;;;;;6.90;71.70;;;;;;4973491;28;19933;-79
2022/03/28 08:00:41;;;;;;;;;;;6.90;71.90;;;;;;4993402;28;20303;-79
2022/03/28 08:03:08;;;;;;;;;;;6.90;72.00;;;;;;5000760;28;19926;-79
2022/03/28 08:05:35;;;;;;;;;;;6.90;72.30;;;;;;4983956;28;19972;-79
2022/03/28 08:08:02;;;;;;;;;;;6.90;72.10;;;;;;4995303;28;19925;-78
2022/03/28 08:10:29;;;;;;;;;;;6.90;72.40;;;;;;4986238;28;20303;-79
2022/03/28 08:12:55;;;;;;;;;;;6.90;72.70;;;;;;4996769;28;19932;-79
2022/03/28 08:15:26;;;;;;;;;;;6.90;72.60;;;;;;4992596;28;19925;-79
2022/03/28 08:17:53;;;;;;;;;;;6.90;72.70;;;;;;4982314;28;19956;-79
2022/03/28 08:20:20;;;;;;;;;;;6.90;72.70;;;;;;5002302;28;20482;-78
2022/03/28 08:22:49;;;;;;;;;;;7.00;72.80;;;;;;4987545;28;19945;-80
2022/03/28 08:25:16;;;;;;;;;;;7.00;73.00;;;;;;5003966;28;19929;-78
2022/03/28 08:27:43;;;;;;;;;;;7.00;73.10;;;;;;4988999;28;19925;-78
2022/03/28 08:30:13;;;;;;;;;;;7.00;73.10;;;;;;5000980;28;19940;-79
2022/03/28 08:32:42;;;;;;;;;;;7.00;73.10;;;;;;4996336;28;20273;-79
2022/03/28 08:35:09;;;;;;;;;;;7.00;73.10;;;;;;4978310;28;19926;-79
2022/03/28 08:37:37;;;;;;;;;;;7.00;73.30;;;;;;4994981;28;19926;-79
2022/03/28 08:40:05;;;;;;;;;;;7.10;73.50;;;;;;4993712;28;19929;-79
2022/03/28 08:42:33;;;;;;;;;;;7.10;73.80;;;;;;4993165;28;19933;-79
2022/03/28 08:44:59;;;;;;;;;;;7.20;73.70;;;;;;5000152;28;19934;-78
2022/03/28 08:47:27;;;;;;;;;;;7.20;73.80;;;;;;4980300;28;20347;-79
2022/03/28 08:49:56;;;;;;;;;;;7.20;74.40;;;;;;4980753;28;19926;-79
2022/03/28 08:52:24;;;;;;;;;;;7.20;74.20;;;;;;5000560;28;19960;-78
2022/03/28 08:54:51;;;;;;;;;;;7.20;74.80;;;;;;4996334;28;19925;-78
2022/03/28 08:57:18;;;;;;;;;;;7.30;74.50;;;;;;4996994;28;19926;-81
2022/03/28 08:59:45;;;;;;;;;;;7.30;74.40;;;;;;4991835;28;20016;-79
2022/03/28 09:02:31;;;;;;;;;;;7.30;74.70;;;;;;4992248;28;19929;-78
2022/03/28 09:05:00;;;;;;;;;;;7.40;74.90;;;;;;4991200;28;20343;-80
2022/03/28 09:07:28;;;;;;;;;;;7.40;75.10;;;;;;4974890;28;20363;-79
2022/03/28 09:09:58;;;;;;;;;;;7.40;74.90;;;;;;4992458;28;19933;-79
2022/03/28 09:12:25;;;;;;;;;;;7.40;75.80;;;;;;4997783;28;19926;-79
2022/03/28 09:14:56;;;;;;;;;;;7.50;75.70;;;;;;4988292;28;19930;-80
2022/03/28 09:17:23;;;;;;;;;;;7.50;75.50;;;;;;4986011;28;19984;-79
2022/03/28 09:19:52;;;;;;;;;;;7.50;75.80;;;;;;4995365;28;20024;-79
2022/03/28 09:22:23;;;;;;;;;;;7.50;75.90;;;;;;5000571;28;19934;-79
2022/03/28 09:24:50;;;;;;;;;;;7.60;76.00;;;;;;5005041;28;19976;-79
2022/03/28 09:27:18;;;;;;;;;;;7.60;76.30;;;;;;4999947;28;19980;-79
2022/03/28 09:29:58;;;;;;;;;;;7.70;75.90;;;;;;5000038;28;19933;-80
2022/03/28 09:32:26;;;;;;;;;;;7.70;77.00;;;;;;4983484;28;19980;-78
2022/03/28 09:35:08;;;;;;;;;;;7.70;76.60;;;;;;4996350;28;19933;-79
2022/03/28 09:37:57;;;;;;;;;;;7.80;76.80;;;;;;4992514;28;19989;-80
2022/03/28 09:40:33;;;;;;;;;;;7.80;76.40;;;;;;4990795;28;20015;-78
2022/03/28 09:43:01;;;;;;;;;;;7.90;76.70;;;;;;4988955;28;19937;-79
2022/03/28 09:45:30;;;;;;;;;;;7.90;76.30;;;;;;4997551;28;20304;-79
2022/03/28 09:48:00;;;;;;;;;;;7.90;76.70;;;;;;4992650;28;19941;-79
2022/03/28 09:50:31;;;;;;;;;;;8.00;77.30;;;;;;4991902;28;19925;-79
2022/03/28 09:53:09;;;;;;;;;;;8.10;77.00;;;;;;5000965;28;20019;-79
2022/03/28 09:55:46;;;;;;;;;;;8.10;77.30;;;;;;4982139;28;20023;-79
2022/03/28 09:58:31;;;;;;;;;;;8.10;77.10;;;;;;5001522;28;19926;-80
2022/03/28 10:00:57;;;;;;;;;;;8.30;77.50;;;;;;5001447;28;19976;-80
2022/03/28 10:03:26;;;;;;;;;;;8.30;76.70;;;;;;5046805;23;19925;-91
2022/03/28 10:05:54;;;;;;;;;;;8.30;77.10;;;;;;4951889;28;20370;-91
2022/03/28 10:08:21;;;;;;;;;;;8.40;77.30;;;;;;4953519;28;19934;-90
2022/03/28 10:10:49;;;;;;;;;;;8.40;77.20;;;;;;4956404;28;19933;-90
2022/03/28 10:13:18;;;;;;;;;;;8.50;77.40;;;;;;4970407;28;19933;-90
2022/03/28 10:15:45;;;;;;;;;;;8.60;77.30;;;;;;4942044;28;19930;-89
2022/03/28 10:18:12;;;;;;;;;;;8.60;77.60;;;;;;4937686;28;19933;-91
2022/03/28 10:20:41;;;;;;;;;;;8.60;77.20;;;;;;4937406;28;20357;-89
2022/03/28 10:23:09;;;;;;;;;;;8.70;77.10;;;;;;4973226;28;19927;-91
2022/03/28 10:25:36;;;;;;;;;;;8.80;77.10;;;;;;4965939;28;20417;-90
2022/03/28 10:28:05;;;;;;;;;;;8.80;76.40;;;;;;4931410;28;21476;-89
2022/03/28 10:30:33;;;;;;;;;;;8.90;76.70;;;;;;4950606;28;20499;-90
2022/03/28 10:33:10;;;;;;;;;;;9.00;76.50;;;;;;4953995;28;19940;-90
2022/03/28 10:35:37;;;;;;;;;;;9.10;76.70;;;;;;4957947;28;19931;-90
2022/03/28 10:38:17;;;;;;;;;;;9.10;76.60;;;;;;4953814;28;19977;-89
2022/03/28 10:40:54;;;;;;;;;;;9.10;76.80;;;;;;4951254;28;19930;-90
2022/03/28 10:43:24;;;;;;;;;;;9.20;76.00;;;;;;4941644;29;20473;-89
2022/03/28 10:45:52;;;;;;;;;;;9.40;75.70;;;;;;4953400;28;19934;-90
2022/03/28 10:48:34;;;;;;;;;;;9.40;76.00;;;;;;4935606;29;19958;-90
2022/03/28 10:51:04;;;;;;;;;;;9.40;75.60;;;;;;4954167;28;20033;-89
2022/03/28 10:53:33;;;;;;;;;;;9.40;76.10;;;;;;4939569;28;19927;-89
2022/03/28 10:56:01;;;;;;;;;;;9.50;75.40;;;;;;4954315;28;19926;-90
2022/03/28 10:58:31;;;;;;;;;;;9.60;74.90;;;;;;4956646;28;19934;-90
2022/03/28 11:01:17;;;;;;;;;;;9.60;75.10;;;;;;4935953;28;19930;-90
2022/03/28 11:03:45;;;;;;;;;;;9.70;75.10;;;;;;4948521;28;19935;-90
2022/03/28 11:06:13;;;;;;;;;;;9.70;74.60;;;;;;4957110;28;19926;-90
2022/03/28 11:08:41;;;;;;;;;;;9.80;74.60;;;;;;4939066;28;19926;-90
2022/03/28 11:11:15;;;;;;;;;;;9.80;74.10;;;;;;4948777;28;19957;-89
2022/03/28 11:13:43;;;;;;;;;;;9.80;74.10;;;;;;4947924;28;20457;-90
2022/03/28 11:16:20;;;;;;;;;;;9.80;74.00;;;;;;4955464;28;19935;-90
2022/03/28 11:19:02;;;;;;;;;;;9.90;73.40;;;;;;4936814;28;19926;-89
2022/03/28 11:21:29;;;;;;;;;;;10.00;71.90;;;;;;4936730;28;19926;-90
2022/03/28 11:24:08;;;;;;;;;;;10.10;70.60;;;;;;4957736;28;19990;-90
2022/03/28 11:26:35;;;;;;;;;;;10.20;69.30;;;;;;4948190;28;19930;-89
2022/03/28 11:29:07;;;;;;;;;;;10.30;69.10;;;;;;4951765;28;19993;-89
2022/03/28 11:31:36;;;;;;;;;;;10.30;70.00;;;;;;4943590;28;19930;-90
2022/03/28 11:34:08;;;;;;;;;;;10.30;70.50;;;;;;4939635;28;19937;-89
2022/03/28 11:36:37;;;;;;;;;;;10.30;70.30;;;;;;4952662;28;19926;-90
2022/03/28 11:39:04;;;;;;;;;;;10.40;69.40;;;;;;4949642;28;20396;-89
2022/03/28 11:41:32;;;;;;;;;;;10.40;69.20;;;;;;4950462;28;19930;-90
2022/03/28 11:43:59;;;;;;;;;;;10.60;68.20;;;;;;4948731;28;19941;-89
2022/03/28 11:46:29;;;;;;;;;;;10.60;68.60;;;;;;4964345;28;19930;-90
2022/03/28 11:48:57;;;;;;;;;;;10.60;69.60;;;;;;4950624;28;20393;-89
2022/03/28 11:51:25;;;;;;;;;;;10.90;67.30;;;;;;4967439;28;19930;-90
2022/03/28 11:53:53;;;;;;;;;;;11.30;66.00;;;;;;4929228;28;20192;-89
2022/03/28 11:56:23;;;;;;;;;;;11.50;65.80;;;;;;4950573;28;19926;-89
2022/03/28 11:58:50;;;;;;;;;;;11.40;66.40;;;;;;4933276;28;19934;-89
2022/03/28 12:01:17;;;;;;;;;;;11.30;66.30;;;;;;4950375;28;19934;-89
2022/03/28 12:03:49;;;;;;;;;;;11.30;66.70;;;;;;4945812;28;19934;-89
2022/03/28 12:06:25;;;;;;;;;;;11.20;67.50;;;;;;4961995;28;19927;-89
2022/03/28 12:08:52;;;;;;;;;;;11.20;67.70;;;;;;4956043;28;19927;-89
2022/03/28 12:11:19;;;;;;;;;;;11.20;68.20;;;;;;4950867;28;19941;-89
2022/03/28 12:13:46;;;;;;;;;;;11.20;68.10;;;;;;4943873;28;19974;-90
2022/03/28 12:16:13;;;;;;;;;;;11.20;68.60;;;;;;4945263;28;20017;-89
2022/03/28 12:18:40;;;;;;;;;;;11.30;68.40;;;;;;4947152;28;19926;-90
2022/03/28 12:21:08;;;;;;;;;;;11.30;68.40;;;;;;4959840;28;19927;-90
2022/03/28 12:23:37;;;;;;;;;;;11.40;68.90;;;;;;4963741;28;19930;-91
2022/03/28 12:26:05;;;;;;;;;;;11.40;68.00;;;;;;4941821;28;19926;-89
2022/03/28 12:28:34;;;;;;;;;;;11.50;68.30;;;;;;4950678;28;19974;-89
2022/03/28 12:31:02;;;;;;;;;;;11.60;67.90;;;;;;4945568;28;21274;-89
2022/03/28 12:33:30;;;;;;;;;;;11.60;68.90;;;;;;4944438;28;19934;-89
2022/03/28 12:35:59;;;;;;;;;;;11.70;69.60;;;;;;4937115;28;19973;-90
2022/03/28 12:38:29;;;;;;;;;;;11.70;70.20;;;;;;4955657;28;19927;-90
2022/03/28 12:40:58;;;;;;;;;;;11.80;69.20;;;;;;4940946;28;19927;-89
2022/03/28 12:43:27;;;;;;;;;;;11.90;70.30;;;;;;4962911;28;19931;-90
2022/03/28 12:45:54;;;;;;;;;;;12.00;69.90;;;;;;4948723;28;20037;-89
2022/03/28 12:48:21;;;;;;;;;;;12.00;69.60;;;;;;4948947;28;19962;-90
2022/03/28 12:50:52;;;;;;;;;;;12.20;69.40;;;;;;4949992;28;19926;-89
2022/03/28 12:53:22;;;;;;;;;;;12.20;69.20;;;;;;4950735;28;19934;-89
2022/03/28 12:55:51;;;;;;;;;;;12.20;69.40;;;;;;4952959;28;20431;-90
2022/03/28 12:58:18;;;;;;;;;;;12.20;70.00;;;;;;4931646;28;19926;-89
2022/03/28 13:00:45;;;;;;;;;;;12.30;69.70;;;;;;4948796;28;19935;-89
2022/03/28 13:03:27;;;;;;;;;;;12.30;69.90;;;;;;4933696;28;19926;-89
2022/03/28 13:06:02;;;;;;;;;;;12.40;69.10;;;;;;4952537;28;19927;-89
2022/03/28 13:08:33;;;;;;;;;;;12.70;69.40;;;;;;4931819;28;19930;-89
2022/03/28 13:11:10;;;;;;;;;;;12.80;68.70;;;;;;4945036;28;19933;-89
2022/03/28 13:13:38;;;;;;;;;;;12.90;68.40;;;;;;4947362;28;19926;-89
2022/03/28 13:16:05;;;;;;;;;;;13.00;69.10;;;;;;4951366;28;19978;-90
2022/03/28 13:18:33;;;;;;;;;;;13.10;68.20;;;;;;4930727;28;19957;-88
2022/03/28 13:21:02;;;;;;;;;;;13.00;70.10;;;;;;4923497;28;20013;-89
2022/03/28 13:23:32;;;;;;;;;;;13.10;68.70;;;;;;4932368;28;19934;-90
2022/03/28 13:26:13;;;;;;;;;;;13.20;69.00;;;;;;4945684;28;21399;-90
2022/03/28 13:28:41;;;;;;;;;;;13.20;68.70;;;;;;4966063;28;19934;-90
2022/03/28 13:31:09;;;;;;;;;;;13.20;69.30;;;;;;4956009;28;19934;-89
2022/03/28 13:33:36;;;;;;;;;;;13.20;69.30;;;;;;4950287;28;19941;-89
2022/03/28 13:36:03;;;;;;;;;;;13.50;68.70;;;;;;4962099;28;19941;-90
2022/03/28 13:38:37;;;;;;;;;;;13.70;68.50;;;;;;4950622;28;19926;-89
2022/03/28 13:41:05;;;;;;;;;;;13.70;69.60;;;;;;4945781;28;20040;-89
2022/03/28 13:43:34;;;;;;;;;;;13.90;68.90;;;;;;4935586;29;19930;-92
2022/03/28 13:46:02;;;;;;;;;;;13.90;68.90;;;;;;4937560;28;20377;-92
2022/03/28 13:48:29;;;;;;;;;;;14.00;68.60;;;;;;4940115;28;19938;-95
2022/03/28 13:50:58;;;;;;;;;;;14.00;68.40;;;;;;4958499;28;19935;-93
2022/03/28 13:53:25;;;;;;;;;;;14.20;68.10;;;;;;4952026;28;19937;-93
2022/03/28 13:55:53;;;;;;;;;;;14.20;68.00;;;;;;4950030;28;19938;-92
2022/03/28 13:58:20;;;;;;;;;;;14.30;68.10;;;;;;4951086;28;19930;-92
2022/03/28 14:00:49;;;;;;;;;;;14.30;68.20;;;;;;4933446;28;19933;-93
2022/03/28 14:03:16;;;;;;;;;;;14.40;69.10;;;;;;4953819;28;19958;-92
2022/03/28 14:05:49;;;;;;;;;;;14.40;68.40;;;;;;4939847;28;20386;-91
2022/03/28 14:08:16;;;;;;;;;;;14.40;68.80;;;;;;4956780;28;20005;-91
2022/03/28 14:10:43;;;;;;;;;;;14.40;67.80;;;;;;4952559;28;19926;-92
2022/03/28 14:13:10;;;;;;;;;;;14.60;68.00;;;;;;4956421;28;20525;-92
2022/03/28 14:15:37;;;;;;;;;;;14.70;68.20;;;;;;4936069;28;19927;-92
2022/03/28 14:18:06;;;;;;;;;;;14.70;68.00;;;;;;4937290;28;19974;-93
2022/03/28 14:20:33;;;;;;;;;;;14.80;69.60;;;;;;4934067;28;19926;-92
2022/03/28 14:23:00;;;;;;;;;;;14.90;68.10;;;;;;4955265;28;19926;-93
2022/03/28 14:25:27;;;;;;;;;;;15.00;67.40;;;;;;4939884;29;19934;-92
2022/03/28 14:27:54;;;;;;;;;;;15.00;69.10;;;;;;4936459;28;19949;-94
2022/03/28 14:30:21;;;;;;;;;;;15.10;68.40;;;;;;4950833;28;19935;-91
2022/03/28 14:32:48;;;;;;;;;;;15.20;67.50;;;;;;4936407;28;19937;-92
2022/03/28 14:35:17;;;;;;;;;;;15.20;68.30;;;;;;4932502;28;20333;-92
2022/03/28 14:37:44;;;;;;;;;;;15.20;67.60;;;;;;4931646;28;19926;-91
2022/03/28 14:40:11;;;;;;;;;;;15.30;68.40;;;;;;4951082;28;19926;-95